createdAt,value
2023-03-29T00:02:48.878Z,3.80
2023-03-29T00:07:54.552Z,3.50
2023-03-29T00:13:00.116Z,3.40
2023-03-29T00:18:05.936Z,3.60
2023-03-29T00:23:11.647Z,5.40
2023-03-29T00:28:16.920Z,3.80
2023-03-29T00:33:22.893Z,4.20
2023-03-29T00:38:28.234Z,4.60
2023-03-29T00:43:53.128Z,3.90
2023-03-29T00:49:03.798Z,3.40
2023-03-29T00:54:16.197Z,3.50
2023-03-29T01:04:32.818Z,3.80
2023-03-29T01:09:42.080Z,3.20
2023-03-29T01:14:53.243Z,3.70
2023-03-29T01:20:07.930Z,3.10
2023-03-29T01:25:19.667Z,3.00
2023-03-29T01:30:29.769Z,3.50
2023-03-29T01:35:42.007Z,2.70
2023-03-29T01:45:56.298Z,2.60
2023-03-29T01:51:08.123Z,3.40
2023-03-29T01:56:17.980Z,3.60
2023-03-29T02:01:28.186Z,3.90
2023-03-29T02:06:36.112Z,3.40
2023-03-29T02:11:44.800Z,4.00
2023-03-29T02:16:50.488Z,3.30
2023-03-29T02:22:03.960Z,4.00
2023-03-29T02:27:09.417Z,2.90
2023-03-29T02:32:20.383Z,2.50
2023-03-29T02:37:30.295Z,2.40
2023-03-29T02:42:36.952Z,2.00
2023-03-29T02:47:46.717Z,2.30
2023-03-29T02:52:59.220Z,2.40
2023-03-29T02:58:08.491Z,1.90
2023-03-29T03:03:15.604Z,1.80
2023-03-29T03:08:21.180Z,2.20
2023-03-29T03:13:26.447Z,1.90
2023-03-29T03:18:31.787Z,1.90
2023-03-29T03:23:37.222Z,2.20
2023-03-29T03:28:43.328Z,2.30
2023-03-29T03:33:49.077Z,2.40
2023-03-29T03:38:55.113Z,2.40
2023-03-29T03:44:00.912Z,2.70
2023-03-29T03:49:06.305Z,2.90
2023-03-29T03:54:11.630Z,2.70
2023-03-29T03:59:17.492Z,2.70
2023-03-29T04:04:23.583Z,3.00
2023-03-29T04:09:29.940Z,2.70
2023-03-29T04:14:35.653Z,3.60
2023-03-29T04:19:41.076Z,3.40
2023-03-29T04:24:46.349Z,3.00
2023-03-29T04:29:51.944Z,3.50
2023-03-29T04:34:57.401Z,3.80
2023-03-29T04:40:04.831Z,4.00
2023-03-29T04:45:11.614Z,3.00
2023-03-29T04:50:17.326Z,3.20
2023-03-29T04:55:22.647Z,3.20
2023-03-29T05:00:28.619Z,3.90
2023-03-29T05:05:34.009Z,3.40
2023-03-29T05:10:41.438Z,3.00
2023-03-29T05:15:47.610Z,3.50
2023-03-29T05:20:54.124Z,3.20
2023-03-29T05:25:59.458Z,3.40
2023-03-29T05:31:06.779Z,3.80
2023-03-29T05:36:14.724Z,3.40
2023-03-29T05:41:20.323Z,3.10
2023-03-29T05:46:25.724Z,3.50
2023-03-29T05:51:33.304Z,3.40
2023-03-29T05:56:38.683Z,3.10
2023-03-29T06:01:47.070Z,3.50
2023-03-29T06:06:53.254Z,3.10
2023-03-29T06:11:59.438Z,3.70
2023-03-29T06:17:05.215Z,3.40
2023-03-29T06:22:13.122Z,3.20
2023-03-29T06:27:20.064Z,3.00
2023-03-29T06:32:25.812Z,3.10
2023-03-29T06:37:32.508Z,3.30
2023-03-29T06:42:37.877Z,3.40
2023-03-29T06:47:43.259Z,3.90
2023-03-29T06:52:49.059Z,4.20
2023-03-29T06:57:54.887Z,4.30
2023-03-29T07:03:04.266Z,3.70
2023-03-29T07:08:09.908Z,3.50
2023-03-29T07:13:15.773Z,3.40
2023-03-29T07:18:21.222Z,3.90
2023-03-29T07:23:26.686Z,3.20
2023-03-29T07:28:31.989Z,4.20
2023-03-29T07:33:37.893Z,4.00
2023-03-29T07:38:43.826Z,3.30
2023-03-29T07:43:51.976Z,3.50
2023-03-29T07:48:57.369Z,3.20
2023-03-29T07:54:02.717Z,3.40
2023-03-29T07:59:08.350Z,3.00
2023-03-29T08:04:14.098Z,3.40
2023-03-29T08:09:19.734Z,3.00
2023-03-29T08:14:25.098Z,2.60
2023-03-29T08:19:30.660Z,2.90
2023-03-29T08:24:36.242Z,2.70
2023-03-29T08:29:41.638Z,2.60
2023-03-29T08:34:47.051Z,2.70
2023-03-29T08:39:53.141Z,2.80
2023-03-29T08:45:07.833Z,2.50
2023-03-29T08:50:13.940Z,3.40
2023-03-29T08:55:26.897Z,2.90
2023-03-29T09:00:39.014Z,2.40
2023-03-29T09:11:07.778Z,2.40
2023-03-29T09:16:25.656Z,2.70
2023-03-29T09:21:41.554Z,2.90
2023-03-29T09:26:52.813Z,2.50
2023-03-29T09:31:58.800Z,2.50
2023-03-29T09:37:08.852Z,2.90
2023-03-29T09:42:15.904Z,2.00
2023-03-29T09:47:24.964Z,2.20
2023-03-29T09:52:30.620Z,2.20
2023-03-29T09:57:36.086Z,2.20
2023-03-29T10:02:41.911Z,2.30
2023-03-29T10:07:51.720Z,2.60
2023-03-29T10:12:59.879Z,2.10
2023-03-29T10:18:11.772Z,2.20
2023-03-29T10:23:20.041Z,2.70
2023-03-29T10:28:27.617Z,2.50
2023-03-29T10:33:35.863Z,1.90
2023-03-29T10:38:41.430Z,2.20
2023-03-29T10:43:51.002Z,2.40
2023-03-29T10:48:59.886Z,2.00
2023-03-29T10:54:06.964Z,3.10
2023-03-29T10:59:24.426Z,2.60
2023-03-29T11:04:40.758Z,2.40
2023-03-29T11:09:55.684Z,1.80
2023-03-29T11:15:14.915Z,2.20
2023-03-29T11:20:29.673Z,2.40
2023-03-29T11:25:45.818Z,2.30
2023-03-29T11:31:00.681Z,2.30
2023-03-29T11:36:16.704Z,2.60
2023-03-29T11:41:26.054Z,2.10
2023-03-29T11:46:34.451Z,1.80
2023-03-29T11:51:44.021Z,2.30
2023-03-29T11:56:54.917Z,2.20
2023-03-29T12:02:12.249Z,2.40
2023-03-29T12:07:24.566Z,1.90
2023-03-29T12:12:41.901Z,2.30
2023-03-29T12:17:54.722Z,2.30
2023-03-29T12:23:00.855Z,1.80
2023-03-29T12:28:19.657Z,2.00
2023-03-29T12:33:50.026Z,1.90
2023-03-29T12:38:56.077Z,2.10
2023-03-29T12:44:04.642Z,1.80
2023-03-29T12:49:23.388Z,2.10
2023-03-29T12:54:31.548Z,2.10
2023-03-29T12:59:43.732Z,2.50
2023-03-29T13:09:58.589Z,2.20
2023-03-29T13:15:07.114Z,1.90
2023-03-29T13:20:37.510Z,1.90
2023-03-29T13:25:57.263Z,2.00
2023-03-29T13:31:08.680Z,1.70
2023-03-29T13:36:26.544Z,2.00
2023-03-29T13:41:46.203Z,2.20
2023-03-29T13:47:04.205Z,1.70
2023-03-29T13:52:18.827Z,1.50
2023-03-29T13:57:35.304Z,1.50
2023-03-29T14:02:49.432Z,1.60
2023-03-29T14:07:56.874Z,2.10
2023-03-29T14:13:04.132Z,2.00
2023-03-29T14:18:12.537Z,2.10
2023-03-29T14:23:22.483Z,2.30
2023-03-29T14:28:28.893Z,2.20
2023-03-29T14:33:34.968Z,2.60
2023-03-29T14:38:42.257Z,2.10
2023-03-29T14:43:48.980Z,2.60
2023-03-29T14:48:55.863Z,2.00
2023-03-29T14:54:03.412Z,2.20
2023-03-29T14:59:26.384Z,2.80
2023-03-29T15:04:37.465Z,2.60
2023-03-29T15:09:45.020Z,2.50
2023-03-29T15:14:52.305Z,2.70
2023-03-29T15:20:11.033Z,2.70
2023-03-29T15:25:20.591Z,3.00
2023-03-29T15:30:34.954Z,3.90
2023-03-29T15:35:40.762Z,4.00
2023-03-29T15:40:46.690Z,3.50
2023-03-29T15:45:52.591Z,3.50
2023-03-29T15:51:01.522Z,3.50
2023-03-29T15:56:15.895Z,3.60
2023-03-29T16:01:33.665Z,3.70
2023-03-29T16:06:39.506Z,3.60
2023-03-29T16:11:46.164Z,4.00
2023-03-29T16:16:52.600Z,3.80
2023-03-29T16:21:59.494Z,3.90
2023-03-29T16:27:05.740Z,3.90
2023-03-29T16:32:11.892Z,3.90
2023-03-29T16:37:17.425Z,4.20
2023-03-29T16:42:22.680Z,5.40
2023-03-29T16:47:28.172Z,4.20
2023-03-29T16:52:33.532Z,4.10
2023-03-29T16:57:40.015Z,4.80
2023-03-29T17:02:49.707Z,4.80
2023-03-29T17:07:56.276Z,4.70
2023-03-29T17:13:01.899Z,4.10
2023-03-29T17:18:07.463Z,4.30
2023-03-29T17:23:13.104Z,4.60
2023-03-29T17:28:18.412Z,4.60
2023-03-29T17:33:26.294Z,3.50
2023-03-29T17:38:34.277Z,3.80
2023-03-29T17:43:39.754Z,3.90
2023-03-29T17:48:45.934Z,4.40
2023-03-29T17:53:52.437Z,4.50
2023-03-29T17:58:57.956Z,4.20
2023-03-29T18:04:03.300Z,4.70
2023-03-29T18:09:10.085Z,5.30
2023-03-29T18:14:16.150Z,4.60
2023-03-29T18:19:21.541Z,4.30
2023-03-29T18:24:27.504Z,4.40
2023-03-29T18:29:32.834Z,5.80
2023-03-29T18:34:39.451Z,4.70
2023-03-29T18:39:47.145Z,4.50
2023-03-29T18:44:52.424Z,7.30
2023-03-29T18:49:58.122Z,5.70
2023-03-29T18:55:03.663Z,5.00
2023-03-29T19:00:13.819Z,6.30
2023-03-29T19:05:19.253Z,6.60
2023-03-29T19:10:24.882Z,5.90
2023-03-29T19:15:30.291Z,6.50
2023-03-29T19:20:36.658Z,6.30
2023-03-29T19:25:43.456Z,6.70
2023-03-29T19:30:49.033Z,5.80
2023-03-29T19:35:54.424Z,6.10
2023-03-29T19:40:59.939Z,6.90
2023-03-29T19:46:11.692Z,5.40
2023-03-29T19:51:17.453Z,5.80
2023-03-29T19:56:25.682Z,5.40
2023-03-29T20:01:32.401Z,5.70
2023-03-29T20:06:37.881Z,5.30
2023-03-29T20:11:44.450Z,6.80
2023-03-29T20:16:50.738Z,7.20
2023-03-29T20:21:57.546Z,5.80
2023-03-29T20:27:04.524Z,5.70
2023-03-29T20:32:09.951Z,5.10
2023-03-29T20:37:15.219Z,5.60
2023-03-29T20:42:24.479Z,6.40
2023-03-29T20:47:30.204Z,5.60
2023-03-29T20:52:36.040Z,5.70
2023-03-29T20:57:42.205Z,5.70
2023-03-29T21:02:48.197Z,6.00
2023-03-29T21:07:54.659Z,5.20
2023-03-29T21:13:02.821Z,5.80
2023-03-29T21:18:08.964Z,5.60
2023-03-29T21:23:14.455Z,5.40
2023-03-29T21:28:19.848Z,5.10
2023-03-29T21:33:25.438Z,5.60
2023-03-29T21:38:30.838Z,5.80
2023-03-29T21:43:36.157Z,5.50
2023-03-29T21:48:41.926Z,5.00
2023-03-29T21:53:47.503Z,5.80
2023-03-29T21:59:13.094Z,5.70
2023-03-29T22:04:38.912Z,5.80
2023-03-29T22:10:04.750Z,5.40
2023-03-29T22:15:32.285Z,5.40
2023-03-29T22:20:57.975Z,5.70
2023-03-29T22:26:30.717Z,5.30
2023-03-29T22:31:56.690Z,5.40
2023-03-29T22:37:22.381Z,4.90
2023-03-29T22:42:48.156Z,4.90
2023-03-29T22:48:13.802Z,5.30
2023-03-29T22:53:39.518Z,5.50
2023-03-29T22:59:05.423Z,5.30
2023-03-29T23:04:31.330Z,6.10
2023-03-29T23:09:49.944Z,5.90
2023-03-29T23:15:15.644Z,7.10
2023-03-29T23:20:41.302Z,7.30
2023-03-29T23:26:08.905Z,7.40
2023-03-29T23:31:36.411Z,6.90
2023-03-29T23:37:02.238Z,6.60
2023-03-29T23:42:28.030Z,6.90
2023-03-29T23:47:54.485Z,7.00
2023-03-29T23:53:20.160Z,6.40
2023-03-29T23:58:45.975Z,6.60
